createdAt,value
2022-08-10T00:01:59.401Z,2.08
2022-08-10T00:07:00.037Z,2.33
2022-08-10T00:12:02.057Z,2.55
2022-08-10T00:17:02.652Z,2.97
2022-08-10T00:22:03.311Z,2.63
2022-08-10T00:27:52.339Z,3.03
2022-08-10T00:32:26.629Z,2.50
2022-08-10T00:37:27.270Z,2.65
2022-08-10T00:42:29.247Z,2.40
2022-08-10T00:47:37.396Z,2.38
2022-08-10T00:52:39.432Z,2.55
2022-08-10T00:57:41.783Z,2.28
2022-08-10T01:02:42.431Z,2.28
2022-08-10T01:07:54.261Z,2.42
2022-08-10T01:13:04.044Z,2.20
2022-08-10T01:18:10.492Z,2.40
2022-08-10T01:23:48.830Z,2.70
2022-08-10T01:28:58.204Z,2.35
2022-08-10T01:34:06.121Z,2.75
2022-08-10T01:39:08.499Z,2.47
2022-08-10T01:44:11.413Z,2.30
2022-08-10T01:49:16.676Z,2.58
2022-08-10T01:54:22.278Z,2.58
2022-08-10T01:59:31.027Z,2.55
2022-08-10T02:04:36.980Z,2.90
2022-08-10T02:09:40.468Z,2.63
2022-08-10T02:14:45.999Z,2.88
2022-08-10T02:19:50.623Z,2.40
2022-08-10T02:24:53.556Z,2.30
2022-08-10T02:29:55.675Z,2.70
2022-08-10T02:34:59.242Z,2.70
2022-08-10T02:39:59.964Z,2.60
2022-08-10T02:45:25.602Z,2.63
2022-08-10T02:50:29.777Z,3.00
2022-08-10T02:55:36.375Z,2.63
2022-08-10T03:00:43.352Z,3.05
2022-08-10T03:05:48.536Z,3.15
2022-08-10T03:10:51.674Z,2.90
2022-08-10T03:15:52.935Z,3.15
2022-08-10T03:20:57.571Z,4.10
2022-08-10T03:26:00.813Z,3.40
2022-08-10T03:31:02.738Z,3.65
2022-08-10T03:36:42.309Z,2.80
2022-08-10T03:41:35.772Z,4.03
2022-08-10T03:46:39.609Z,4.13
2022-08-10T03:51:42.730Z,3.22
2022-08-10T03:56:43.608Z,3.75
2022-08-10T04:02:46.138Z,4.10
2022-08-10T04:07:07.829Z,3.03
2022-08-10T04:12:10.048Z,4.35
2022-08-10T04:17:13.953Z,3.95
2022-08-10T04:22:19.645Z,3.70
2022-08-10T04:27:20.438Z,3.85
2022-08-10T04:32:23.082Z,3.58
2022-08-10T04:37:26.526Z,3.65
2022-08-10T04:42:27.311Z,3.85
2022-08-10T04:47:51.246Z,3.67
2022-08-10T04:52:49.895Z,3.90
2022-08-10T04:57:50.496Z,3.35
2022-08-10T05:02:52.051Z,4.30
2022-08-10T05:07:57.055Z,3.65
2022-08-10T05:12:57.748Z,4.38
2022-08-10T05:18:08.228Z,3.97
2022-08-10T05:23:11.729Z,4.65
2022-08-10T05:28:12.506Z,4.05
2022-08-10T05:33:13.192Z,3.63
2022-08-10T05:38:16.394Z,4.03
2022-08-10T05:43:19.215Z,4.07
2022-08-10T05:48:57.252Z,4.40
2022-08-10T05:54:02.805Z,3.92
2022-08-10T05:59:02.626Z,3.97
2022-08-10T06:04:04.911Z,4.10
2022-08-10T06:09:08.539Z,4.30
2022-08-10T06:14:28.553Z,3.72
2022-08-10T06:19:30.649Z,4.03
2022-08-10T06:24:50.393Z,3.83
2022-08-10T06:30:01.881Z,4.00
2022-08-10T06:35:07.113Z,3.70
2022-08-10T06:40:11.802Z,3.55
2022-08-10T06:45:16.302Z,3.53
2022-08-10T06:50:45.565Z,3.53
2022-08-10T06:55:55.590Z,3.80
2022-08-10T07:00:58.159Z,4.18
2022-08-10T07:06:01.660Z,4.30
2022-08-10T07:11:10.034Z,3.70
2022-08-10T07:16:14.434Z,3.55
2022-08-10T07:21:16.807Z,2.97
2022-08-10T07:26:20.293Z,3.63
2022-08-10T07:31:54.344Z,3.63
2022-08-10T07:36:45.588Z,3.03
2022-08-10T07:41:50.385Z,3.15
2022-08-10T07:46:55.124Z,3.40
2022-08-10T07:51:57.266Z,2.90
2022-08-10T07:57:02.603Z,3.17
2022-08-10T08:02:06.126Z,3.65
2022-08-10T08:07:08.633Z,2.90
2022-08-10T08:12:11.829Z,2.70
2022-08-10T08:17:16.818Z,2.25
2022-08-10T08:24:07.958Z,2.38
2022-08-10T08:27:47.824Z,2.92
2022-08-10T08:32:50.913Z,2.65
2022-08-10T08:38:32.851Z,2.83
2022-08-10T08:43:31.634Z,2.63
2022-08-10T08:48:47.271Z,2.38
2022-08-10T08:54:01.970Z,2.00
2022-08-10T08:59:24.521Z,1.95
2022-08-10T09:04:37.422Z,4.75
2022-08-10T09:10:04.589Z,2.55
2022-08-10T09:15:12.587Z,2.95
2022-08-10T09:20:40.205Z,2.40
2022-08-10T09:25:53.512Z,2.42
2022-08-10T09:31:21.494Z,2.20
2022-08-10T09:36:32.545Z,2.28
2022-08-10T09:41:45.370Z,2.08
2022-08-10T09:47:06.181Z,2.42
2022-08-10T09:52:17.590Z,2.25
2022-08-10T09:57:44.576Z,2.78
2022-08-10T10:02:58.725Z,2.63
2022-08-10T10:08:08.312Z,1.98
2022-08-10T10:13:13.324Z,2.08
2022-08-10T10:18:43.157Z,1.77
2022-08-10T10:24:20.296Z,1.77
2022-08-10T10:29:58.407Z,2.08
2022-08-10T10:35:04.185Z,1.80
2022-08-10T10:40:08.310Z,2.08
2022-08-10T10:45:19.040Z,2.30
2022-08-10T10:50:29.519Z,2.25
2022-08-10T10:56:14.670Z,2.05
2022-08-10T11:01:04.781Z,2.10
2022-08-10T11:06:15.445Z,1.92
2022-08-10T11:12:00.327Z,2.45
2022-08-10T11:16:52.871Z,2.05
2022-08-10T11:22:14.506Z,2.35
2022-08-10T11:27:23.590Z,2.35
2022-08-10T11:32:27.442Z,1.98
2022-08-10T11:38:30.252Z,2.20
2022-08-10T11:43:10.495Z,1.83
2022-08-10T11:48:54.162Z,2.13
2022-08-10T11:53:49.343Z,2.17
2022-08-10T11:59:17.233Z,2.28
2022-08-10T12:04:21.419Z,1.95
2022-08-10T12:10:11.121Z,1.98
2022-08-10T12:14:51.833Z,1.90
2022-08-10T12:20:02.723Z,1.75
2022-08-10T12:25:10.395Z,1.98
2022-08-10T12:30:15.914Z,2.20
2022-08-10T12:35:26.297Z,2.35
2022-08-10T12:40:38.023Z,1.95
2022-08-10T12:45:43.295Z,2.00
2022-08-10T12:50:50.903Z,2.00
2022-08-10T12:55:53.762Z,2.17
2022-08-10T13:01:15.131Z,2.33
2022-08-10T13:06:18.515Z,2.45
2022-08-10T13:12:36.201Z,2.13
2022-08-10T13:16:48.787Z,2.00
2022-08-10T13:21:52.878Z,2.33
2022-08-10T13:27:26.897Z,2.38
2022-08-10T13:32:33.147Z,2.22
2022-08-10T13:37:36.954Z,2.10
2022-08-10T13:42:38.878Z,1.83
2022-08-10T13:47:49.600Z,2.17
2022-08-10T13:52:53.662Z,1.73
2022-08-10T13:57:58.953Z,1.75
2022-08-10T14:03:10.664Z,1.90
2022-08-10T14:08:14.767Z,1.75
2022-08-10T14:13:19.196Z,1.90
2022-08-10T14:18:21.827Z,2.17
2022-08-10T14:23:22.587Z,2.25
2022-08-10T14:28:32.193Z,1.85
2022-08-10T14:33:36.517Z,2.20
2022-08-10T14:38:39.956Z,1.63
2022-08-10T14:43:42.559Z,2.00
2022-08-10T14:48:48.187Z,1.98
2022-08-10T14:53:54.131Z,2.30
2022-08-10T14:58:58.917Z,2.38
2022-08-10T15:04:12.252Z,2.30
2022-08-10T15:09:19.506Z,1.83
2022-08-10T15:14:42.455Z,2.20
2022-08-10T15:20:03.606Z,2.15
2022-08-10T15:25:17.838Z,2.40
2022-08-10T15:30:19.831Z,1.75
2022-08-10T15:35:41.729Z,1.75
2022-08-10T15:40:50.546Z,1.83
2022-08-10T15:46:02.286Z,1.75
2022-08-10T15:51:10.862Z,1.88
2022-08-10T15:56:16.176Z,1.98
2022-08-10T16:02:12.776Z,1.77
2022-08-10T16:07:11.440Z,2.33
2022-08-10T16:12:16.376Z,1.95
2022-08-10T16:17:18.500Z,1.67
2022-08-10T16:22:36.651Z,1.98
2022-08-10T16:27:38.507Z,2.03
2022-08-10T16:32:39.986Z,1.98
2022-08-10T16:37:58.764Z,1.70
2022-08-10T16:43:03.532Z,1.88
2022-08-10T16:48:06.444Z,1.80
2022-08-10T16:53:13.282Z,1.75
2022-08-10T16:58:16.703Z,1.90
2022-08-10T17:03:22.579Z,2.05
2022-08-10T17:08:48.256Z,1.90
2022-08-10T17:13:50.255Z,1.65
2022-08-10T17:18:51.331Z,2.45
2022-08-10T17:23:55.903Z,1.80
2022-08-10T17:29:01.859Z,2.38
2022-08-10T17:34:12.158Z,2.13
2022-08-10T17:39:16.207Z,1.88
2022-08-10T17:44:19.981Z,2.20
2022-08-10T17:49:21.533Z,2.10
2022-08-10T17:54:28.990Z,2.10
2022-08-10T17:59:32.914Z,2.15
2022-08-10T18:04:42.044Z,1.98
2022-08-10T18:09:49.689Z,2.03
2022-08-10T18:14:53.260Z,2.47
2022-08-10T18:19:58.732Z,2.72
2022-08-10T18:25:01.641Z,2.20
2022-08-10T18:30:07.446Z,2.25
2022-08-10T18:35:09.754Z,2.30
2022-08-10T18:40:13.382Z,2.45
2022-08-10T18:45:16.524Z,1.80
2022-08-10T18:50:27.178Z,2.55
2022-08-10T18:55:35.527Z,2.28
2022-08-10T19:01:06.882Z,2.25
2022-08-10T19:06:19.697Z,2.60
2022-08-10T19:11:35.003Z,2.35
2022-08-10T19:16:44.131Z,2.38
2022-08-10T19:21:49.858Z,2.60
2022-08-10T19:27:04.546Z,2.40
2022-08-10T19:32:21.580Z,2.50
2022-08-10T19:37:33.172Z,2.72
2022-08-10T19:42:40.731Z,2.83
2022-08-10T19:47:51.631Z,2.90
2022-08-10T19:53:03.344Z,2.30
2022-08-10T19:58:12.099Z,2.40
2022-08-10T20:03:20.184Z,2.20
2022-08-10T20:08:28.412Z,2.33
2022-08-10T20:13:38.557Z,2.42
2022-08-10T20:18:44.504Z,2.60
2022-08-10T20:23:55.293Z,3.13
2022-08-10T20:29:08.050Z,3.20
2022-08-10T20:34:16.681Z,3.20
2022-08-10T20:39:27.237Z,3.40
2022-08-10T20:44:39.274Z,3.85
2022-08-10T20:49:49.764Z,3.45
2022-08-10T20:54:53.371Z,4.13
2022-08-10T21:00:07.262Z,3.72
2022-08-10T21:05:21.690Z,4.10
2022-08-10T21:10:39.481Z,3.95
2022-08-10T21:15:55.523Z,4.38
2022-08-10T21:21:06.173Z,3.50
2022-08-10T21:26:10.998Z,3.85
2022-08-10T21:31:26.503Z,3.75
2022-08-10T21:36:34.813Z,3.28
2022-08-10T21:42:02.380Z,3.83
2022-08-10T21:47:42.415Z,3.42
2022-08-10T21:53:43.560Z,3.38
2022-08-10T21:59:13.412Z,3.58
2022-08-10T22:04:34.687Z,2.55
2022-08-10T22:09:57.814Z,3.30
2022-08-10T22:15:23.093Z,3.30
2022-08-10T22:20:45.776Z,3.08
2022-08-10T22:26:17.707Z,3.53
2022-08-10T22:31:50.477Z,3.17
2022-08-10T22:37:38.253Z,3.58
2022-08-10T22:43:10.484Z,3.55
2022-08-10T22:48:30.812Z,3.70
2022-08-10T22:53:56.813Z,3.70
2022-08-10T22:58:57.513Z,3.17
2022-08-10T23:04:00.141Z,2.63
2022-08-10T23:09:04.284Z,2.85
2022-08-10T23:14:07.768Z,2.90
2022-08-10T23:19:15.072Z,2.70
2022-08-10T23:24:23.924Z,2.70
2022-08-10T23:29:25.868Z,2.75
2022-08-10T23:34:33.724Z,3.63
2022-08-10T23:39:39.358Z,2.90
2022-08-10T23:44:44.192Z,3.47
2022-08-10T23:49:45.967Z,2.72
2022-08-10T23:54:51.099Z,2.70
2022-08-10T23:59:55.876Z,3.05
